Nomini Grove, Virginia
Current Conditions -  °F | °C
As of 3:35 PM on Wednesday 26 Nov 2014 (Local Time) from KXSA Reporting Station
Heavy Rain Heavy Rain  
Wind Chill: 32°   Ceiling: 700
Heat Index: 38°   Visibility: 1.2mi
Dew Point: 34°   Wind: 9mph
Humidity: 86%   Direction: 290°WNW
Pressure: 29.91"   Gusts: 20mph
Location:  37.967°N, 76.7668°W
Report Text: KXSA 262035Z AUTO 29008G17KT 1 1/4SM +RA OVC007 03/01 A2991 RMK AO2 T00340012
Loading
Personal Weather Stations






























Interactive Weather Map New forecast layout! Learn more

10-Day Weather Forecast

Advertisements
Track Severe Weather on mobile